Date,TemperatureHighF,TemperatureAvgF,TemperatureLowF,DewpointHighF,DewpointAvgF,DewpointLowF,HumidityHigh,HumidityAvg,HumidityLow,PressureMaxIn,PressureMinIn,WindSpeedMaxMPH,WindSpeedAvgMPH,GustSpeedMaxMPH,PrecipitationSumIn
2013-1-1,77.7,64.8,53.5,62.5,55.2,47.5,88,72,53,30.12,29.93,18,1,18,0.01
2013-1-2,80.5,69.4,62.0,69.7,63.1,55.8,90,81,67,29.96,29.89,13,1,13,0.00
2013-1-3,73.0,64.6,58.7,67.8,61.5,56.1,92,90,83,30.07,29.92,15,1,15,0.32
2013-1-4,60.4,57.5,54.2,58.1,55.3,52.2,93,92,92,30.18,30.06,11,0,11,0.03
2013-1-5,75.4,61.2,51.3,64.4,55.6,48.5,92,82,66,30.19,30.07,12,0,12,0.00
2013-1-6,81.1,66.0,59.9,71.0,60.9,55.7,91,84,68,30.10,29.98,11,0,11,0.02
2013-1-7,67.8,62.2,56.3,61.0,56.8,52.4,91,83,66,30.11,30.00,17,1,17,0.12
2013-1-8,82.4,69.7,60.1,71.2,62.9,57.3,92,80,61,30.11,30.01,12,0,12,0.00
2013-1-9,84.3,74.7,67.6,72.4,66.1,62.5,91,76,55,30.18,30.06,11,1,16,0.00
2013-1-10,84.7,74.4,66.9,70.2,64.0,60.4,91,72,46,30.18,30.10,19,1,19,0.01
2013-1-11,83.6,72.8,64.8,68.3,62.7,60.5,88,72,50,30.16,30.02,16,1,16,0.00
2013-1-12,83.0,71.9,64.3,69.4,63.8,60.9,90,77,52,30.07,29.98,17,1,17,0.00
2013-1-13,80.9,72.3,64.8,68.2,63.4,59.3,86,74,57,30.06,29.95,13,1,13,0.00
2013-1-14,82.0,70.1,63.1,67.1,60.0,54.9,89,72,48,30.07,30.00,13,1,13,0.00
2013-1-15,81.8,69.7,60.9,67.7,60.7,54.7,88,74,52,30.04,29.94,13,1,13,0.01
2013-1-16,82.0,70.4,63.4,68.5,61.5,58.0,90,75,51,29.99,29.90,11,0,11,0.03
2013-1-17,69.3,62.0,52.5,66.6,56.8,43.4,91,83,71,30.06,29.87,18,2,18,0.24
2013-1-18,62.9,54.1,43.1,51.6,44.4,35.0,74,70,64,30.22,30.06,21,1,21,0.00
2013-1-19,76.5,64.2,52.9,59.2,53.1,44.9,79,68,54,30.17,30.02,15,1,15,0.00
2013-1-20,74.7,64.7,58.9,63.0,56.6,53.3,85,75,64,30.07,29.95,11,0,11,0.00
2013-1-21,77.9,65.2,60.2,62.8,55.0,50.4,81,70,54,30.01,29.93,13,0,13,0.00
2013-1-22,67.1,59.3,50.2,50.8,39.6,29.6,72,50,29,30.18,29.98,14,0,14,0.00
2013-1-23,69.8,57.6,45.4,41.8,37.0,31.5,67,48,31,30.27,30.17,13,0,13,0.00
2013-1-24,73.3,64.5,53.3,55.6,51.1,47.5,81,63,47,30.24,30.16,3,0,10,0.24
2013-1-25,76.8,59.8,49.6,60.0,49.7,45.5,90,72,39,30.21,30.09,1,0,3,0.03
2013-1-26,76.8,62.1,51.9,62.4,53.6,46.8,89,75,53,30.18,30.08,3,0,6,0.01
2013-1-27,80.3,64.3,52.9,63.5,54.1,49.0,90,72,40,30.20,30.11,2,0,8,0.02
2013-1-28,81.2,69.5,60.5,66.2,60.0,54.4,90,73,49,30.22,30.10,3,0,9,0.00
2013-1-29,82.8,71.3,62.0,69.4,63.1,57.8,91,76,55,30.13,29.98,4,1,10,0.05
2013-1-30,81.2,73.0,66.9,67.5,64.0,62.2,85,74,56,29.98,29.79,9,4,16,0.00
2013-1-31,68.8,57.7,49.6,61.3,44.8,34.0,87,64,42,30.14,29.80,6,1,16,0.15
2013-2-1,68.6,55.7,46.2,42.6,37.2,28.6,68,52,23,30.26,30.13,6,0,9,0.00
2013-2-2,73.9,56.8,44.3,44.7,40.3,34.3,69,56,31,30.21,30.07,10,0,10,0.00
2013-2-3,71.5,56.3,43.3,56.2,46.1,37.2,82,69,53,30.09,30.00,13,0,13,0.01
2013-2-4,70.1,55.4,45.5,51.2,43.0,38.2,86,66,32,30.04,29.95,11,0,11,0.05
2013-2-5,78.8,60.0,45.7,53.7,46.7,37.6,77,63,39,29.99,29.90,10,0,10,0.00
2013-2-6,76.7,66.5,58.4,58.6,55.1,51.5,79,68,52,30.00,29.91,11,0,11,0.02
2013-2-7,81.1,69.3,62.3,65.6,61.4,55.2,88,77,52,29.95,29.78,22,3,22,0.19
2013-2-8,77.9,66.5,58.6,64.9,59.9,53.6,89,80,62,29.98,29.80,13,1,13,0.00
2013-2-9,78.5,64.1,54.5,59.0,53.9,50.7,87,71,42,30.10,29.97,12,0,12,0.01
2013-2-10,80.7,68.7,59.6,61.7,57.0,51.4,81,68,47,30.13,30.02,19,2,19,0.00
2013-2-11,83.0,71.3,63.9,66.4,61.8,58.4,85,73,54,30.09,29.98,16,2,16,0.01
2013-2-12,82.6,72.5,65.6,70.8,66.2,61.9,90,81,63,29.99,29.84,7,2,0,0.00
2013-2-13,82.2,70.9,59.5,73.2,66.1,55.1,91,85,72,29.89,29.74,8,2,16,1.24
2013-2-14,62.9,60.6,58.0,60.3,57.8,55.4,92,90,87,29.95,29.83,4,0,10,0.30
2013-2-15,68.3,58.5,53.8,59.3,53.2,48.2,92,83,68,29.99,29.87,2,0,8,0.00
2013-2-16,69.8,57.0,48.6,55.9,45.5,33.7,85,67,47,30.04,29.85,6,1,19,0.01
2013-2-17,55.6,47.6,38.9,34.1,25.8,19.2,62,43,31,30.24,30.04,5,1,16,0.00
2013-2-18,68.1,52.0,37.2,44.0,34.8,26.8,70,54,35,30.26,30.10,5,1,14,0.00
2013-2-19,78.8,64.2,52.2,59.2,52.8,44.2,83,68,45,30.11,29.98,6,1,14,0.00
2013-2-20,76.7,65.4,58.0,65.4,58.0,50.6,89,78,60,30.02,29.93,3,0,7,0.00
2013-2-21,80.9,67.7,57.2,66.4,59.0,50.3,87,75,58,30.00,29.88,5,1,0,0.00
2013-2-22,84.7,71.6,62.9,71.0,63.9,58.6,89,78,58,29.96,29.89,5,1,11,0.03
2013-2-23,82.4,73.1,66.3,72.4,67.5,62.3,89,83,69,29.90,29.79,19,1,19,0.00
2013-2-24,73.7,70.7,68.4,70.6,67.6,65.4,92,90,88,29.86,29.77,11,0,11,0.04
2013-2-25,82.2,73.4,67.9,71.6,67.7,65.5,92,83,65,29.80,29.66,16,1,16,0.00
2013-2-26,74.6,70.7,65.3,70.3,65.7,59.9,90,84,78,29.78,29.58,22,2,22,0.29
2013-2-27,73.2,64.8,58.7,60.7,55.2,49.3,83,72,55,29.89,29.77,12,1,12,0.00
2013-2-28,74.9,63.7,55.7,58.0,51.9,45.3,81,66,51,29.90,29.81,14,0,14,0.00
2013-3-1,66.1,57.7,50.8,46.9,42.4,36.8,68,57,48,29.93,29.82,17,0,17,0.00
2013-3-2,58.9,53.6,46.5,42.8,38.4,34.2,66,56,48,29.98,29.89,20,1,20,0.00
2013-3-3,56.9,47.8,41.8,39.7,33.0,27.8,64,57,48,30.06,29.90,21,1,21,0.00
2013-3-4,65.3,52.0,40.9,38.0,33.7,28.1,71,51,31,30.13,30.04,11,0,11,0.00
2013-3-5,74.7,59.1,41.8,58.1,48.6,34.8,82,69,52,30.07,29.93,17,0,17,0.00
2013-3-6,65.6,59.0,52.5,60.9,45.3,37.6,86,62,45,30.04,29.86,21,2,21,0.00
2013-3-7,64.5,52.8,44.5,40.2,36.7,31.9,73,55,35,30.13,30.03,14,0,14,0.00
2013-3-8,73.0,56.5,43.6,50.0,43.0,37.2,85,63,35,30.13,30.03,12,0,12,0.00
2013-3-9,53.1,50.2,47.9,47.2,43.8,42.3,84,79,74,30.10,30.05,7,0,7,0.00
2013-3-10,80.3,73.6,65.0,55.2,54.1,53.1,67,51,40,30.00,29.95,6,1,0,0.00
2013-3-11,77.9,73.3,68.1,62.0,58.0,55.3,75,59,48,29.95,29.77,19,3,19,0.00
2013-3-12,69.1,63.7,57.6,64.7,57.6,50.1,90,81,70,29.95,29.74,17,1,17,0.46
2013-3-13,71.8,61.5,55.9,50.8,45.3,39.2,76,57,36,30.09,29.95,17,2,17,0.00
2013-3-14,65.2,57.6,50.4,48.7,37.1,29.3,71,48,29,30.19,30.08,17,1,17,0.00
2013-3-15,73.2,56.3,42.2,44.8,39.6,35.1,80,57,27,30.19,30.07,13,0,13,0.00
2013-3-16,78.1,61.0,47.6,55.5,47.9,42.1,87,65,32,30.09,29.98,12,0,12,0.00
2013-3-17,75.3,63.6,52.6,60.3,54.6,47.1,88,74,55,30.03,29.89,13,1,13,0.01
2013-3-18,75.1,67.6,59.3,66.3,61.0,54.1,85,80,72,29.93,29.76,22,1,22,0.00
2013-3-19,83.8,69.8,62.0,69.2,62.0,58.4,90,77,55,29.90,29.79,14,0,14,0.01
2013-3-20,71.8,65.4,57.6,65.4,60.6,54.1,89,85,77,29.88,29.72,14,1,14,0.30
2013-3-21,68.9,58.2,48.8,54.6,44.1,36.5,90,63,32,29.90,29.79,16,1,16,0.01
2013-3-22,77.0,61.1,46.2,62.1,49.0,38.6,85,67,41,29.90,29.79,10,0,10,0.99
2013-3-23,83.4,72.0,64.5,75.0,67.1,59.9,92,85,71,29.87,29.69,22,1,22,0.00
2013-3-24,79.9,73.3,67.9,73.9,69.1,64.1,92,87,80,29.72,29.55,22,2,22,0.00
2013-3-25,67.9,61.9,56.3,64.2,49.2,39.3,89,64,43,29.95,29.65,27,2,27,0.00
2013-3-26,59.3,54.6,47.4,43.6,36.8,33.6,60,51,42,30.16,29.95,22,2,22,0.00
2013-3-27,60.2,50.4,42.3,38.3,34.4,29.4,70,55,42,30.24,30.13,16,1,16,0.00
2013-3-28,70.4,54.9,42.5,44.8,37.6,31.3,80,56,27,30.21,30.11,12,0,12,0.00
2013-3-29,77.7,59.8,46.0,50.0,43.7,37.5,80,59,25,30.23,30.11,13,0,13,0.00
2013-3-30,78.3,62.2,47.0,58.0,49.4,41.1,83,65,31,30.16,30.04,17,1,17,0.00
2013-3-31,80.5,66.8,53.9,60.7,54.7,48.6,88,67,35,30.06,29.90,16,1,16,0.00
2013-4-1,80.7,72.1,65.5,69.0,63.6,56.3,84,75,65,29.93,29.84,15,1,15,0.00
2013-4-2,82.0,69.7,60.5,68.6,61.4,56.9,90,76,56,29.99,29.90,4,0,0,0.00
2013-4-3,83.8,71.8,62.7,69.0,63.0,57.9,88,75,55,29.98,29.84,8,1,8,0.14
2013-4-4,71.6,69.4,66.9,68.1,65.4,63.1,91,87,81,29.93,29.76,18,2,18,0.40
2013-4-5,73.5,66.6,61.5,64.7,60.6,54.3,90,81,67,29.90,29.70,19,1,19,0.06
2013-4-6,77.0,64.4,54.2,59.1,54.4,48.2,82,71,53,30.01,29.90,14,0,14,0.00
2013-4-7,83.4,69.3,58.9,64.0,57.8,54.4,88,69,43,30.05,29.95,13,1,13,0.00
2013-4-8,87.4,71.7,63.2,63.9,59.4,55.3,83,67,36,30.02,29.94,12,1,12,0.00
2013-4-9,84.0,73.8,64.0,68.1,62.8,59.4,87,70,50,30.05,29.95,11,1,11,0.00
2013-4-10,88.2,74.8,63.4,67.7,61.6,57.9,84,65,40,30.01,29.86,5,1,0,0.00
2013-4-11,80.7,78.5,77.4,68.6,68.3,68.0,74,71,66,29.72,29.70,16,3,18,0.06
2013-4-12,77.6,75.4,70.9,72.9,70.1,66.2,88,84,77,29.81,29.67,21,2,27,0.04
2013-4-13,86.3,75.0,67.4,72.1,66.0,60.1,90,75,54,29.87,29.78,12,0,12,0.00
2013-4-14,85.5,73.7,66.3,72.1,65.7,59.6,84,77,60,29.90,29.74,20,2,20,0.17
2013-4-15,90.3,76.8,66.9,70.1,64.7,60.5,83,68,48,29.96,29.80,10,0,10,0.00
2013-4-16,93.8,78.5,68.8,73.4,66.9,62.7,87,70,41,30.02,29.92,18,1,18,0.00
2013-4-17,88.6,77.8,67.6,68.8,63.0,58.1,86,63,37,30.04,29.90,16,1,16,0.00
2013-4-18,89.9,77.7,67.6,69.6,65.6,62.1,85,68,43,29.94,29.84,19,1,19,0.00
2013-4-19,88.8,79.5,72.3,74.1,69.0,65.3,88,72,48,29.90,29.82,22,3,22,0.02
2013-4-20,76.8,68.2,59.6,70.2,61.2,54.1,85,79,69,30.05,29.87,16,1,16,0.10
2013-4-21,82.4,69.5,59.6,68.1,62.0,54.3,87,78,59,30.04,29.92,13,1,13,0.02
2013-4-22,81.4,71.3,66.6,69.8,64.9,59.8,91,81,63,29.98,29.88,14,1,14,0.03
2013-4-23,86.3,73.5,64.7,66.8,62.1,56.8,86,69,48,30.00,29.91,14,1,14,0.00
2013-4-24,86.5,72.6,61.5,64.9,60.9,56.5,85,68,41,30.03,29.97,13,1,13,0.00
2013-4-25,85.9,74.1,63.5,71.0,64.1,59.2,88,72,55,30.10,30.00,14,1,14,0.00
2013-4-26,87.8,76.0,65.5,71.1,65.6,60.5,86,71,55,30.13,30.04,12,1,12,0.00
2013-4-27,86.7,75.7,67.6,69.6,64.6,62.0,86,70,47,30.11,29.98,12,1,12,0.00
2013-4-28,88.8,76.6,66.1,66.2,63.2,57.7,85,65,36,30.01,29.86,13,2,13,0.00
2013-4-29,83.8,76.0,69.3,68.5,65.8,61.1,81,71,57,29.91,29.80,11,1,11,0.04
2013-4-30,90.1,76.9,67.1,72.3,67.2,63.6,90,74,50,29.89,29.80,14,1,14,0.76
2013-5-1,74.0,70.5,66.6,71.1,66.9,64.2,92,88,80,29.90,29.81,13,1,13,0.90
2013-5-2,80.1,71.5,64.7,71.6,66.8,62.6,93,86,72,29.87,29.70,13,1,13,0.00
2013-5-3,84.7,74.9,68.3,72.6,67.0,62.3,90,77,61,29.72,29.62,14,1,14,0.01
2013-5-4,83.0,74.5,68.8,69.6,65.7,62.5,84,74,61,29.71,29.58,18,1,18,0.00
2013-5-5,77.7,70.1,62.7,63.8,55.5,50.5,85,62,39,29.84,29.69,21,2,21,0.03
2013-5-6,76.0,69.7,64.7,61.3,55.8,52.1,78,62,47,29.92,29.79,13,2,13,0.02
2013-5-7,79.4,70.8,63.4,61.1,56.8,52.4,71,62,49,29.95,29.86,19,1,19,0.00
2013-5-8,81.6,71.2,60.5,63.4,59.2,54.6,84,67,49,30.03,29.93,16,0,16,0.00
2013-5-9,85.7,72.9,61.5,67.4,61.5,56.9,88,69,49,30.05,29.98,12,0,12,0.00
2013-5-10,90.3,75.9,64.3,72.4,64.8,58.2,89,70,45,30.04,29.89,14,1,14,0.00
2013-5-11,89.0,77.5,70.6,75.9,69.4,64.1,88,77,61,29.95,29.89,16,1,16,0.00
2013-5-12,87.6,77.6,70.6,73.9,68.2,64.4,89,74,56,29.94,29.81,13,0,13,0.00
2013-5-13,85.3,74.8,66.6,66.0,57.7,47.3,84,58,32,30.03,29.90,19,1,19,0.00
2013-5-14,85.1,72.5,59.8,56.8,46.8,39.9,65,42,21,30.12,30.02,17,1,17,0.00
2013-5-15,89.0,73.7,61.2,61.9,57.0,52.3,80,58,30,30.11,29.97,9,0,13,0.00
2013-5-16,87.0,75.9,67.4,65.4,62.6,57.8,81,65,46,30.02,29.90,10,0,10,0.00
2013-5-17,87.6,77.7,69.6,68.4,64.9,62.6,80,66,47,29.99,29.92,11,0,11,0.00
2013-5-18,89.0,78.1,68.9,74.9,68.3,63.5,86,73,56,30.00,29.92,13,0,13,0.00
2013-5-19,90.3,79.1,69.4,73.6,67.3,64.5,88,69,48,29.99,29.88,11,0,11,0.00
2013-5-20,93.6,80.4,72.3,73.0,67.4,61.6,83,66,43,29.96,29.86,16,1,16,0.00
2013-5-21,89.0,76.2,68.3,72.5,67.1,63.6,87,75,51,29.92,29.82,16,0,19,0.17
2013-5-22,88.0,77.6,69.1,75.2,69.2,66.0,91,77,57,29.87,29.79,13,0,13,0.01
2013-5-23,89.3,79.4,70.8,74.7,69.9,65.7,87,73,57,29.91,29.81,12,0,12,0.00
2013-5-24,92.7,81.9,74.2,76.7,69.6,63.4,86,68,42,29.97,29.87,16,0,16,0.00
2013-5-25,92.7,81.8,70.1,68.8,62.2,55.7,80,54,31,30.07,29.95,17,1,17,0.00
2013-5-26,89.0,78.1,65.6,62.1,54.7,46.7,78,49,24,30.10,30.00,14,1,14,0.00
2013-5-27,90.5,78.4,65.5,65.5,60.7,54.9,82,57,32,30.07,29.95,14,1,14,0.00
2013-5-28,91.4,79.4,68.8,72.2,67.0,62.6,85,67,47,30.04,29.91,21,1,21,0.00
2013-5-29,87.8,79.6,72.3,73.5,68.4,62.8,87,70,48,29.99,29.92,24,2,24,0.03
2013-5-30,89.5,80.6,73.5,73.0,68.9,65.3,88,69,51,29.97,29.89,22,2,22,0.00
2013-5-31,81.8,75.2,71.8,70.8,67.2,65.8,83,76,67,29.97,29.92,16,1,16,0.00
2013-6-1,88.0,79.2,73.0,75.5,70.9,67.3,89,76,59,29.94,29.83,5,1,0,1.39
2013-6-2,87.2,77.6,72.1,77.9,73.0,69.3,92,86,68,29.89,29.82,3,0,0,0.01
2013-6-3,88.2,80.5,74.0,75.9,72.4,69.8,89,77,65,29.89,29.79,4,1,0,0.00
2013-6-4,86.7,79.1,75.8,75.4,72.1,70.2,86,80,65,29.90,29.82,5,0,0,0.12
2013-6-5,80.5,76.8,74.9,70.1,69.0,67.7,85,77,68,29.80,29.77,11,0,11,0.04
2013-6-6,79.8,75.2,72.7,74.5,71.3,69.6,93,88,81,29.77,29.52,26,3,26,2.48
2013-6-7,88.6,80.6,74.0,74.8,71.7,69.4,87,75,62,29.85,29.67,13,1,13,0.00
2013-6-8,90.7,80.4,73.7,78.0,72.3,68.4,88,77,60,29.99,29.85,16,1,16,0.19
2013-6-9,91.8,79.6,72.3,77.7,72.3,68.9,92,80,53,29.99,29.91,13,1,13,0.07
2013-6-10,91.0,82.0,75.1,77.6,73.6,70.5,89,76,60,29.98,29.90,13,1,13,0.00
2013-6-11,91.4,81.8,74.6,79.2,73.0,69.1,86,75,58,29.98,29.91,9,0,9,0.99
2013-6-12,93.6,83.9,74.4,77.2,72.9,69.6,87,71,53,29.98,29.90,13,1,13,0.00
2013-6-13,92.3,83.3,75.4,76.9,72.2,70.2,87,70,52,29.94,29.81,12,0,12,0.00
2013-6-14,89.5,82.9,78.5,74.4,72.5,70.7,79,71,59,29.85,29.77,13,1,13,0.00
2013-6-15,90.7,83.4,79.4,78.2,74.7,71.2,83,75,63,29.95,29.80,8,0,8,0.00
2013-6-16,93.8,84.1,78.1,77.2,74.3,71.7,86,73,52,29.97,29.90,13,1,13,0.00
2013-6-17,94.5,84.7,76.5,77.5,73.8,71.1,87,71,53,29.96,29.89,11,1,11,0.00
2013-6-18,93.6,84.2,76.1,77.5,73.8,70.7,88,72,57,29.95,29.87,13,1,13,0.00
2013-6-19,94.7,84.3,74.2,80.3,74.1,69.1,89,73,56,29.93,29.87,12,0,12,0.21
2013-6-20,93.4,83.4,75.4,78.0,71.8,65.9,88,69,48,30.00,29.90,12,1,12,0.00
2013-6-21,88.0,79.5,74.0,75.4,71.0,67.3,84,76,64,30.01,29.92,12,0,12,0.03
2013-6-22,92.7,81.0,72.5,76.7,70.9,67.5,90,73,46,30.01,29.93,12,1,12,0.01
2013-6-23,94.5,81.1,74.2,75.8,71.6,68.3,87,75,45,30.02,29.95,11,1,11,0.69
2013-6-24,93.6,82.6,74.4,77.1,72.9,70.1,91,74,48,30.07,29.95,11,1,12,0.01
2013-6-25,94.0,84.1,75.1,76.6,72.2,69.4,87,69,49,30.04,29.91,19,1,19,0.01
2013-6-26,92.7,81.6,74.4,77.9,72.8,66.0,88,76,56,29.97,29.88,18,0,18,0.23
2013-6-27,93.6,82.5,72.7,79.0,73.1,69.0,91,75,54,29.95,29.84,10,0,10,0.01
2013-6-28,93.2,84.2,77.2,77.0,73.5,71.1,84,71,55,29.86,29.74,18,1,18,0.00
2013-6-29,86.3,80.7,75.6,76.7,73.1,68.2,85,78,67,29.78,29.69,14,0,14,0.17
2013-6-30,89.0,80.5,75.8,78.9,74.0,71.2,88,81,67,29.77,29.69,17,1,17,0.47
2013-7-1,78.3,75.9,73.0,75.4,73.0,69.9,92,90,88,29.85,29.72,16,1,16,0.99
2013-7-2,88.4,78.1,72.5,79.4,73.0,69.4,94,85,68,29.96,29.83,20,1,20,1.08
2013-7-3,91.8,78.1,73.5,77.4,71.9,68.0,91,82,56,30.00,29.91,20,0,20,0.29
2013-7-4,90.7,77.6,72.1,77.0,72.2,69.1,93,84,59,30.05,29.95,20,1,20,0.75
2013-7-5,91.2,78.0,71.5,77.9,72.5,68.5,93,84,61,30.03,29.95,21,1,21,0.02
2013-7-6,92.9,82.2,74.2,77.3,72.2,68.3,91,74,47,30.00,29.91,16,1,16,0.11
2013-7-7,94.3,81.2,74.2,77.6,73.1,69.4,90,78,47,30.02,29.91,18,1,18,0.45
2013-7-8,92.9,81.5,75.1,78.2,73.5,68.9,90,78,55,30.05,29.96,10,0,10,0.97
2013-7-9,96.1,82.1,73.0,77.9,72.7,68.1,92,75,44,30.05,29.93,11,0,11,0.02
2013-7-10,92.5,82.0,73.7,76.3,71.8,69.1,89,73,54,29.98,29.85,13,0,13,0.25
2013-7-11,89.5,79.8,73.9,78.5,73.3,70.1,92,81,65,29.92,29.81,11,0,11,0.10
2013-7-12,88.0,80.5,75.8,78.0,73.5,69.0,89,80,67,29.84,29.78,10,0,10,0.18
2013-7-13,75.8,75.3,74.9,71.0,70.1,69.4,87,84,81,29.83,29.79,1,0,1,0.01
2013-7-14,89.3,79.3,73.2,78.2,73.0,70.1,91,82,66,29.96,29.84,4,0,0,0.01
2013-7-15,93.2,81.1,72.7,75.6,71.7,69.4,91,75,48,30.00,29.90,5,0,0,0.04
2013-7-16,92.3,78.8,73.3,75.4,71.3,67.6,90,79,49,30.04,29.96,8,1,0,0.57
2013-7-17,93.2,78.1,73.5,77.4,71.7,66.0,92,82,51,30.05,29.96,4,0,0,0.18
2013-7-18,90.1,79.0,73.3,75.4,71.3,68.2,90,78,51,30.01,29.92,14,0,14,0.02
2013-7-19,85.5,77.3,73.7,77.3,72.2,69.7,90,85,73,30.01,29.93,17,0,17,0.10
2013-7-20,91.2,79.1,73.3,79.4,73.0,69.1,91,82,61,29.99,29.91,17,0,17,0.01
2013-7-21,92.3,82.5,74.7,80.3,74.8,70.6,91,78,62,30.01,29.93,12,0,12,0.11
2013-7-22,92.7,83.6,77.0,79.3,75.1,72.5,90,77,59,30.02,29.95,14,1,14,0.00
2013-7-23,87.4,81.4,76.8,77.5,73.8,69.1,84,78,65,29.99,29.86,12,0,12,0.49
2013-7-24,90.1,83.5,78.6,77.8,74.9,73.4,86,76,63,29.89,29.80,16,1,16,0.16
2013-7-25,89.3,83.0,76.8,76.0,74.5,70.5,87,76,63,29.89,29.76,16,1,16,0.67
2013-7-26,91.8,82.4,76.1,80.4,75.1,72.4,92,80,55,29.92,29.84,16,0,16,0.14
2013-7-27,93.8,84.2,76.8,78.2,73.9,71.3,88,73,52,29.89,29.82,13,0,13,0.00
2013-7-28,92.1,82.1,76.3,78.3,73.3,70.5,87,75,59,29.95,29.83,10,0,10,0.02
2013-7-29,96.1,84.0,73.9,77.3,72.9,69.7,89,71,51,30.03,29.91,7,0,8,0.00
2013-7-30,95.6,83.6,75.6,77.7,73.7,69.5,87,73,54,30.06,29.96,16,0,16,0.00
2013-7-31,95.1,82.9,74.9,79.1,73.2,68.3,88,74,54,30.03,29.90,13,0,13,0.07
2013-8-1,90.1,80.9,74.6,78.6,73.3,68.0,90,78,64,29.95,29.84,11,0,14,0.40
2013-8-2,94.7,83.6,74.4,78.4,73.5,70.1,89,73,55,29.93,29.83,11,0,11,0.00
2013-8-3,94.7,85.0,76.5,79.1,74.7,72.1,90,72,55,29.98,29.89,12,0,12,0.11
2013-8-4,91.2,84.9,79.9,79.9,75.4,73.2,84,74,62,29.98,29.89,13,0,13,0.23
2013-8-5,94.5,86.7,81.6,79.5,76.0,73.8,81,71,55,29.92,29.83,12,0,12,0.07
2013-8-6,94.3,83.5,77.4,80.3,74.9,70.7,89,76,58,29.87,29.78,12,0,12,0.19
2013-8-7,94.3,81.2,76.3,79.1,74.4,70.2,89,81,56,29.86,29.78,24,0,24,0.61
2013-8-8,94.5,82.5,76.3,78.7,73.9,68.8,91,77,49,29.91,29.81,13,1,13,0.00
2013-8-9,91.8,79.9,72.8,77.7,72.7,69.4,91,80,56,29.95,29.85,21,0,21,1.50
2013-8-10,95.9,82.3,73.0,78.8,73.4,70.5,93,77,47,30.01,29.92,16,0,16,0.01
2013-8-11,97.1,85.5,77.0,77.0,73.8,70.1,85,69,46,30.04,29.95,10,0,10,0.00
2013-8-12,96.8,85.9,77.0,79.3,75.3,72.3,87,72,51,30.02,29.90,11,0,11,0.00
2013-8-13,96.8,85.7,78.5,77.3,74.7,72.3,84,71,52,29.94,29.83,13,0,13,0.00
2013-8-14,94.5,83.9,78.1,80.5,75.4,70.8,88,77,55,29.89,29.81,12,0,12,0.65
2013-8-15,93.6,82.4,76.1,78.7,74.3,68.4,89,77,53,29.92,29.83,18,1,18,0.07
2013-8-16,92.5,84.1,79.2,75.4,73.7,71.6,83,72,54,29.93,29.86,12,0,12,0.01
2013-8-17,94.3,81.9,76.0,79.9,74.3,68.0,91,79,53,29.97,29.87,20,1,20,1.47
2013-8-18,92.9,80.8,75.3,78.8,74.0,70.8,91,81,55,29.98,29.90,16,0,16,0.47
2013-8-19,95.1,80.6,73.2,79.9,73.4,65.5,92,80,50,29.97,29.84,25,1,25,1.69
2013-8-20,73.7,73.6,73.3,70.6,70.3,70.1,90,90,89,29.95,29.90,0,0,0,0.00
2013-8-21,93.4,79.6,73.7,79.7,73.3,67.6,91,82,60,29.99,29.87,6,0,0,0.80
2013-8-22,91.2,78.9,72.8,79.9,73.6,67.7,93,85,63,29.97,29.87,7,0,7,1.72
2013-8-23,92.3,80.4,74.7,79.4,74.0,69.2,93,82,59,29.91,29.85,13,0,13,0.01
2013-8-24,94.3,79.6,74.2,79.5,72.8,68.6,90,81,55,30.01,29.88,18,0,18,0.22
2013-8-25,88.6,79.6,74.7,77.5,72.8,68.4,90,80,62,30.05,29.96,12,0,12,0.24
2013-8-26,94.3,80.8,74.0,78.2,73.2,70.4,92,79,52,30.04,29.89,14,1,14,0.33
2013-8-27,93.6,81.2,74.0,77.2,71.8,68.2,92,75,45,29.95,29.86,17,1,17,0.01
2013-8-28,93.4,81.9,72.1,74.7,70.4,67.7,88,70,48,29.95,29.86,12,0,12,0.00
2013-8-29,94.3,83.0,74.0,76.9,72.0,68.7,86,70,52,29.93,29.83,12,1,12,0.00
2013-8-30,93.2,82.5,77.2,80.1,73.8,71.2,88,76,61,29.89,29.78,12,0,12,0.18
2013-8-31,90.1,80.9,74.6,78.0,72.9,69.5,89,77,62,29.89,29.77,12,0,12,0.09
2013-9-1,93.4,82.6,76.3,78.0,72.6,69.6,89,73,53,29.87,29.80,10,0,10,0.01
2013-9-2,93.6,83.1,76.7,78.7,72.7,69.2,89,72,52,29.90,29.83,10,0,10,0.02
2013-9-3,94.3,83.3,75.3,77.7,72.4,69.0,88,71,51,29.92,29.82,10,0,10,0.00
2013-9-4,96.8,81.8,74.6,78.8,73.0,67.2,89,76,48,29.98,29.86,16,0,16,0.56
2013-9-5,93.2,82.1,72.3,80.1,74.1,69.5,92,78,59,29.98,29.89,11,0,11,0.00
2013-9-6,95.9,82.5,74.6,79.5,73.1,67.4,87,74,55,29.95,29.84,16,0,16,0.00
2013-9-7,91.6,79.9,71.3,76.0,70.7,67.3,88,75,53,29.92,29.81,12,0,12,0.00
2013-9-8,93.2,82.0,73.5,75.7,70.7,68.5,88,70,46,29.86,29.76,10,0,14,0.00
2013-9-9,95.6,83.2,73.9,75.8,69.7,65.7,87,66,39,29.92,29.82,13,0,13,0.00
2013-9-10,93.6,82.7,74.4,75.8,69.1,63.3,87,66,41,29.97,29.89,16,1,16,0.00
2013-9-11,94.7,83.3,74.6,75.6,69.0,63.4,88,65,37,29.96,29.87,16,1,16,0.00
2013-9-12,88.0,80.3,74.6,76.9,71.6,68.4,87,75,62,29.92,29.77,10,0,10,0.00
2013-9-13,91.4,81.3,73.7,78.5,72.0,68.8,89,75,56,29.80,29.70,11,0,11,0.00
2013-9-14,77.7,76.7,75.8,70.7,70.3,69.9,83,81,77,29.74,29.73,0,0,0,0.00
2013-9-15,95.9,81.8,75.3,78.2,71.0,65.5,87,71,45,29.97,29.85,8,1,0,0.00
2013-9-16,95.9,80.3,74.0,76.3,71.3,68.7,88,76,44,29.96,29.86,4,0,1,0.27
2013-9-17,94.0,80.0,72.7,77.3,71.5,67.8,91,77,46,29.94,29.82,17,1,17,0.04
2013-9-18,92.1,79.7,74.4,76.3,71.8,69.0,89,78,55,29.93,29.84,18,1,18,0.06
2013-9-19,93.8,80.0,73.5,76.3,71.9,69.4,90,78,51,29.94,29.85,17,1,17,1.05
2013-9-20,90.5,79.5,70.8,75.5,70.8,67.0,92,76,53,29.92,29.78,12,1,12,0.00
2013-9-21,91.0,80.1,71.1,73.3,68.8,65.9,86,70,50,29.83,29.67,8,1,12,0.00
2013-9-22,90.1,80.7,75.6,78.8,73.8,71.0,90,80,65,29.74,29.64,8,1,13,0.60
2013-9-23,82.8,77.5,76.0,78.0,74.1,72.3,92,89,83,29.83,29.71,18,1,18,1.04
2013-9-24,81.1,77.3,74.9,77.8,74.3,71.3,94,91,86,29.83,29.72,14,1,14,1.15
2013-9-25,79.2,74.6,70.4,76.1,72.0,68.3,94,92,88,29.81,29.67,18,1,18,3.94
2013-9-26,88.4,80.9,74.9,80.3,74.6,68.9,91,82,71,29.77,29.67,14,1,14,0.02
2013-9-27,88.4,77.3,70.4,74.1,69.0,66.3,88,76,58,29.86,29.77,14,1,14,0.00
2013-9-28,91.2,77.7,70.6,74.9,69.5,66.8,89,77,51,29.89,29.82,14,0,14,0.00
2013-9-29,91.8,78.9,69.6,73.3,68.2,64.7,89,72,42,29.89,29.78,12,0,12,0.00
2013-9-30,92.3,79.1,70.4,74.3,68.8,65.4,89,72,42,29.89,29.81,11,0,11,0.00
2013-10-1,91.8,80.5,72.3,76.0,70.7,68.2,88,73,50,29.94,29.84,11,1,11,0.00
2013-10-2,92.3,80.7,72.0,73.7,68.9,67.0,86,69,47,29.94,29.86,16,1,16,0.00
2013-10-3,94.0,80.9,72.3,72.6,69.7,67.5,85,70,45,29.95,29.86,11,0,11,0.00
2013-10-4,91.0,80.6,73.9,75.2,71.2,68.5,87,74,50,29.98,29.89,10,0,10,0.00
2013-10-5,93.8,81.0,73.2,73.7,71.0,68.2,88,73,44,29.95,29.84,13,0,13,0.00
2013-10-6,91.2,80.2,72.1,75.5,70.5,67.9,88,74,50,29.88,29.75,11,0,11,0.00
2013-10-7,87.6,79.2,74.4,78.2,73.5,69.6,90,83,73,29.76,29.63,19,1,19,0.38
2013-10-8,88.6,80.5,74.7,76.5,72.5,68.3,87,77,62,29.85,29.68,14,0,14,0.00
2013-10-9,82.2,75.0,68.9,70.0,66.9,62.8,83,76,64,29.94,29.84,12,0,12,0.00
2013-10-10,88.0,74.8,65.5,70.0,65.0,61.3,88,73,51,29.95,29.86,12,0,12,0.00
2013-10-11,88.8,75.9,65.6,70.3,64.6,60.5,89,70,48,29.94,29.85,11,0,11,0.00
2013-10-12,88.6,75.1,65.2,70.6,62.1,58.2,88,67,38,29.94,29.87,14,0,14,0.00
2013-10-13,89.7,75.2,63.7,70.7,61.5,58.4,86,65,38,29.98,29.88,11,0,11,0.00
2013-10-14,87.0,75.7,67.8,69.8,64.8,60.8,86,70,49,29.95,29.83,11,0,13,0.00
2013-10-15,81.4,72.8,66.9,72.4,66.3,63.0,89,81,69,29.91,29.80,11,0,11,0.00
2013-10-16,85.7,75.7,69.4,72.7,67.3,64.4,88,76,53,29.87,29.80,10,0,10,0.00
2013-10-17,85.5,76.2,68.4,75.4,68.6,64.8,90,78,63,29.87,29.80,10,0,10,0.00
2013-10-18,90.3,78.2,69.1,75.6,70.0,65.4,90,77,54,29.87,29.79,12,0,12,0.00
2013-10-19,87.4,78.9,71.6,76.9,72.0,67.9,90,80,69,29.84,29.76,10,0,10,0.00
2013-10-20,91.4,79.8,73.0,77.0,71.2,68.7,89,76,53,29.85,29.76,11,0,11,0.00
2013-10-21,90.5,79.0,71.5,77.3,70.9,67.8,89,77,56,29.89,29.81,10,0,10,0.00
2013-10-22,90.1,78.1,72.8,76.5,70.9,68.0,90,80,58,29.84,29.73,17,1,17,0.00
2013-10-23,81.1,74.0,66.6,71.2,63.0,53.0,89,70,45,29.91,29.71,17,1,17,0.03
2013-10-24,72.5,65.6,60.2,56.4,48.7,42.8,74,55,42,30.07,29.91,14,0,14,0.00
2013-10-25,82.0,67.5,55.4,59.0,53.1,48.8,84,63,36,30.15,30.05,16,0,16,0.00
2013-10-26,80.7,66.6,57.0,61.0,54.7,51.9,84,67,44,30.11,30.00,12,0,12,0.00
2013-10-27,81.6,66.8,56.5,60.5,54.4,49.2,86,66,39,30.03,29.95,12,0,12,0.00
2013-10-28,84.9,69.2,58.7,62.4,55.1,50.6,82,63,36,30.09,29.99,11,0,11,0.00
2013-10-29,85.9,73.3,63.9,68.7,61.5,57.5,88,69,43,30.13,30.02,16,0,16,0.00
2013-10-30,87.6,75.0,66.1,70.4,63.8,61.0,87,70,46,30.12,29.98,13,0,13,0.00
2013-10-31,86.5,74.5,65.8,69.6,64.7,61.1,88,73,47,30.03,29.86,13,1,13,0.00
2013-11-1,87.4,77.2,70.1,74.1,69.7,64.1,89,78,59,29.89,29.76,18,1,18,0.00
2013-11-2,76.8,70.7,62.3,73.0,66.4,57.5,92,86,81,29.88,29.69,14,0,14,0.84
2013-11-3,77.6,65.6,57.8,57.5,50.2,41.8,89,61,30,30.02,29.87,16,1,16,0.00
2013-11-4,79.2,68.9,59.0,61.2,55.4,47.4,79,63,46,30.06,29.98,16,1,16,0.00
2013-11-5,84.0,73.2,64.3,68.5,63.7,60.0,88,73,55,30.05,29.94,19,1,19,0.00
2013-11-6,86.7,75.3,67.6,70.6,65.3,62.9,87,72,48,30.00,29.91,13,0,13,0.00
2013-11-7,82.8,72.3,67.4,72.4,65.3,62.3,89,79,65,29.96,29.86,8,0,8,0.00
2013-11-8,79.9,70.5,62.9,66.2,60.5,55.8,88,72,50,30.02,29.90,13,1,13,0.00
2013-11-9,82.8,71.7,62.0,66.2,60.9,55.6,81,70,55,30.05,29.98,17,1,17,0.00
2013-11-10,84.0,72.0,64.3,68.1,62.8,58.5,85,74,56,30.07,29.96,11,0,11,0.00
2013-11-11,84.9,72.0,63.9,68.6,63.6,60.3,88,76,52,30.05,29.96,12,0,12,0.00
2013-11-12,81.6,69.9,64.3,71.4,63.4,56.1,90,80,66,30.01,29.91,17,0,17,0.00
2013-11-13,67.9,60.2,51.4,56.1,47.5,43.0,74,63,53,30.21,29.98,19,1,19,0.00
2013-11-14,77.0,62.6,49.8,56.6,50.5,43.3,83,66,45,30.19,30.06,16,0,16,0.00
2013-11-15,70.9,65.7,61.3,63.5,59.7,53.8,89,81,73,30.07,29.94,8,0,8,0.00
2013-11-16,72.3,69.2,66.4,69.5,66.4,63.1,92,91,88,30.01,29.91,12,1,12,0.68
2013-11-17,83.2,73.8,68.3,73.3,67.3,63.4,90,81,67,29.97,29.89,11,1,11,0.00
2013-11-18,84.9,74.5,67.3,73.9,67.8,62.9,90,80,64,29.92,29.81,12,0,12,0.04
2013-11-19,80.3,72.5,65.0,72.6,66.5,57.8,91,82,67,29.87,29.77,10,0,10,0.00
2013-11-20,77.4,69.9,62.6,70.5,64.5,57.5,88,83,78,29.98,29.86,11,1,11,0.02
2013-11-21,84.0,74.4,68.6,72.3,67.6,65.2,89,80,62,30.07,29.98,18,2,18,0.00
2013-11-22,82.2,74.3,68.8,72.3,66.8,62.8,90,78,59,30.07,29.98,14,0,14,0.00
2013-11-23,85.7,71.6,64.2,69.8,63.8,59.6,89,77,54,30.01,29.91,11,1,11,0.00
2013-11-24,69.4,64.9,56.5,65.4,57.3,47.8,87,77,66,30.13,29.93,16,1,16,0.00
2013-11-25,75.8,66.0,56.5,60.1,55.2,47.9,76,69,57,30.11,29.94,22,2,22,0.00
2013-11-26,78.8,72.3,67.3,71.8,67.4,59.8,91,85,76,29.94,29.65,17,3,22,0.48
2013-11-27,71.5,62.1,47.9,68.7,54.8,38.2,92,77,68,30.10,29.62,27,1,27,0.07
2013-11-28,63.9,50.5,38.0,46.5,39.7,28.9,80,67,47,30.25,30.10,16,0,16,0.00
2013-11-29,71.6,58.3,49.9,58.2,50.3,44.6,86,76,52,30.25,30.16,12,0,12,0.00
2013-11-30,76.3,64.0,54.4,63.0,55.4,46.5,87,74,58,30.21,30.07,13,0,13,0.00
2013-12-1,74.2,63.3,59.5,66.6,58.5,55.6,91,85,73,30.09,29.89,10,0,10,0.01
2013-12-2,69.8,63.5,59.3,61.8,57.2,54.3,91,80,65,29.89,29.74,10,0,10,0.00
2013-12-3,78.6,67.0,55.7,65.4,59.0,50.2,88,76,59,29.87,29.78,12,1,12,0.00
2013-12-4,83.6,72.1,64.8,73.1,65.6,61.2,92,81,61,29.96,29.84,8,0,8,0.00
2013-12-5,83.0,71.5,65.0,70.4,64.2,61.0,90,79,57,30.06,29.96,11,0,11,0.01
2013-12-6,84.3,72.8,66.0,73.4,66.1,61.0,92,80,62,30.06,29.97,16,1,16,0.00
2013-12-7,85.3,72.8,66.9,71.8,65.5,61.2,91,79,58,30.12,30.03,8,0,8,0.01
2013-12-8,84.7,72.3,64.3,72.8,65.0,61.0,92,79,57,30.11,29.98,12,1,12,0.01
2013-12-9,83.4,73.2,66.1,72.9,65.9,62.4,90,79,62,30.07,29.97,13,1,13,0.00
2013-12-10,83.4,72.7,63.5,73.2,66.4,60.2,91,81,64,30.07,29.98,12,1,12,0.01
2013-12-11,83.4,69.8,60.4,67.1,62.0,54.8,86,77,58,30.14,30.04,14,1,14,0.01
2013-12-12,72.1,63.4,51.4,61.1,49.7,33.1,89,65,31,30.22,30.09,18,1,18,0.00
2013-12-13,76.7,61.5,49.4,56.0,48.2,34.8,78,63,43,30.18,30.00,13,1,13,0.00
2013-12-14,79.9,71.6,62.0,70.1,64.3,54.5,85,78,66,30.00,29.82,18,2,18,0.00
2013-12-15,73.9,66.9,58.3,70.5,60.9,51.1,89,81,71,30.04,29.77,17,2,17,0.04
2013-12-16,65.2,55.6,48.2,50.9,45.3,40.0,80,69,51,30.13,30.01,12,1,12,0.00
2013-12-17,72.3,55.5,45.1,47.6,43.0,38.3,80,65,32,30.16,30.05,11,0,11,0.00
2013-12-18,73.0,57.0,47.6,53.6,46.3,42.5,89,70,38,30.19,30.10,13,0,13,0.01
2013-12-19,77.9,59.4,45.2,58.8,48.7,39.9,84,69,46,30.16,30.05,13,0,13,0.00
2013-12-20,82.4,68.8,57.6,65.9,59.5,51.5,85,73,56,30.08,29.98,14,1,14,0.00
2013-12-21,84.1,73.7,65.2,71.3,65.4,61.0,89,76,59,30.01,29.89,17,1,17,0.00
2013-12-22,84.9,74.7,69.1,73.7,67.5,65.3,91,79,62,30.02,29.94,17,2,17,0.01
2013-12-23,83.4,74.4,68.9,75.0,68.9,65.2,91,83,70,30.05,29.97,13,1,13,0.02
2013-12-24,72.0,62.0,51.0,68.2,49.1,30.6,89,66,31,30.16,30.01,18,1,18,0.03
2013-12-25,76.7,60.0,46.1,56.8,46.1,32.4,72,61,50,30.16,30.02,13,0,13,0.00
2013-12-26,80.5,65.5,57.5,63.2,56.9,52.5,87,75,51,30.11,29.98,17,1,17,0.00
2013-12-27,68.9,64.0,59.3,62.5,58.4,54.1,86,82,77,30.14,30.04,12,1,12,0.01
2013-12-28,78.1,70.2,63.9,68.5,64.4,59.7,90,82,70,30.10,29.87,20,1,20,0.01
2013-12-29,73.9,68.8,61.3,70.1,65.2,58.7,92,89,82,29.92,29.78,112,2,112,0.55
2013-12-30,70.3,62.5,59.0,61.6,57.4,52.4,92,84,72,30.09,29.90,10,0,10,0.03
2013-12-31,69.3,62.6,58.3,52.8,50.9,48.9,80,66,50,30.19,30.05,11,1,11,0.00
2014-1-1,61.8,60.1,57.0,59.3,54.9,48.5,92,83,65,30.14,29.94,14,1,14,0.00
2014-1-2,76.3,66.2,58.1,72.9,63.7,54.6,94,92,87,29.94,29.73,113,5,113,0.55